sensor_id;sensor_type;location;lat;lon;timestamp;temperature;humidity
9537;DHT22;4807;48.024;11.726;2023-01-30T00:02:15;-4.50;99.90
9537;DHT22;4807;48.024;11.726;2023-01-30T00:05:24;-4.60;99.90
9537;DHT22;4807;48.024;11.726;2023-01-30T00:08:32;-4.60;99.90
9537;DHT22;4807;48.024;11.726;2023-01-30T00:11:42;-4.60;99.90
9537;DHT22;4807;48.024;11.726;2023-01-30T00:14:50;-4.70;99.90
9537;DHT22;4807;48.024;11.726;2023-01-30T00:17:59;-4.70;99.90
9537;DHT22;4807;48.024;11.726;2023-01-30T00:21:09;-4.70;99.90
9537;DHT22;4807;48.024;11.726;2023-01-30T00:24:18;-4.70;99.90
9537;DHT22;4807;48.024;11.726;2023-01-30T00:27:29;-4.70;99.90
9537;DHT22;4807;48.024;11.726;2023-01-30T00:30:38;-4.70;99.90
9537;DHT22;4807;48.024;11.726;2023-01-30T00:33:46;-4.80;99.90
9537;DHT22;4807;48.024;11.726;2023-01-30T00:36:55;-4.80;99.90
9537;DHT22;4807;48.024;11.726;2023-01-30T00:40:14;-4.90;99.90
9537;DHT22;4807;48.024;11.726;2023-01-30T00:43:24;-4.90;99.90
9537;DHT22;4807;48.024;11.726;2023-01-30T00:46:52;-4.90;99.90
9537;DHT22;4807;48.024;11.726;2023-01-30T00:50:15;-5.00;99.90
9537;DHT22;4807;48.024;11.726;2023-01-30T00:53:24;-4.90;99.90
9537;DHT22;4807;48.024;11.726;2023-01-30T00:56:32;-4.90;99.90
9537;DHT22;4807;48.024;11.726;2023-01-30T00:59:42;-4.90;99.90
9537;DHT22;4807;48.024;11.726;2023-01-30T01:02:50;-4.80;99.90
9537;DHT22;4807;48.024;11.726;2023-01-30T01:05:59;-4.80;99.90
9537;DHT22;4807;48.024;11.726;2023-01-30T01:09:07;-4.80;99.90
9537;DHT22;4807;48.024;11.726;2023-01-30T01:12:15;-4.80;99.90
9537;DHT22;4807;48.024;11.726;2023-01-30T01:15:26;-4.90;99.90
9537;DHT22;4807;48.024;11.726;2023-01-30T01:18:35;-5.00;99.90
9537;DHT22;4807;48.024;11.726;2023-01-30T01:21:46;-5.10;99.90
9537;DHT22;4807;48.024;11.726;2023-01-30T01:24:54;-5.20;99.90
9537;DHT22;4807;48.024;11.726;2023-01-30T01:28:03;-5.20;99.90
9537;DHT22;4807;48.024;11.726;2023-01-30T01:31:14;-5.10;99.90
9537;DHT22;4807;48.024;11.726;2023-01-30T01:34:24;-5.10;99.90
9537;DHT22;4807;48.024;11.726;2023-01-30T01:37:32;-5.10;99.90
9537;DHT22;4807;48.024;11.726;2023-01-30T01:40:44;-5.10;99.90
9537;DHT22;4807;48.024;11.726;2023-01-30T01:44:14;-4.70;99.90
9537;DHT22;4807;48.024;11.726;2023-01-30T01:47:24;-5.10;99.90
9537;DHT22;4807;48.024;11.726;2023-01-30T01:50:39;-5.20;99.90
9537;DHT22;4807;48.024;11.726;2023-01-30T01:53:55;-5.20;99.90
9537;DHT22;4807;48.024;11.726;2023-01-30T01:57:17;-5.30;99.90
9537;DHT22;4807;48.024;11.726;2023-01-30T02:00:29;-5.30;99.90
9537;DHT22;4807;48.024;11.726;2023-01-30T02:03:43;-5.30;99.90
9537;DHT22;4807;48.024;11.726;2023-01-30T02:06:54;-5.40;99.90
9537;DHT22;4807;48.024;11.726;2023-01-30T02:10:05;-5.40;99.90
9537;DHT22;4807;48.024;11.726;2023-01-30T02:13:15;-5.40;99.90
9537;DHT22;4807;48.024;11.726;2023-01-30T02:16:26;-5.40;99.90
9537;DHT22;4807;48.024;11.726;2023-01-30T02:19:43;-5.30;99.90
9537;DHT22;4807;48.024;11.726;2023-01-30T02:23:31;-5.20;99.90
9537;DHT22;4807;48.024;11.726;2023-01-30T02:27:20;-5.20;99.90
9537;DHT22;4807;48.024;11.726;2023-01-30T02:31:10;-5.40;99.90
9537;DHT22;4807;48.024;11.726;2023-01-30T02:34:44;-5.60;99.90
9537;DHT22;4807;48.024;11.726;2023-01-30T02:38:07;-5.90;99.90
9537;DHT22;4807;48.024;11.726;2023-01-30T02:41:29;-5.90;99.90
9537;DHT22;4807;48.024;11.726;2023-01-30T02:44:49;-5.90;99.90
9537;DHT22;4807;48.024;11.726;2023-01-30T02:49:29;-5.90;99.90
9537;DHT22;4807;48.024;11.726;2023-01-30T02:52:45;-6.10;99.90
9537;DHT22;4807;48.024;11.726;2023-01-30T02:55:56;-6.00;99.90
9537;DHT22;4807;48.024;11.726;2023-01-30T02:59:04;-6.00;99.90
9537;DHT22;4807;48.024;11.726;2023-01-30T03:06:32;-5.90;99.90
9537;DHT22;4807;48.024;11.726;2023-01-30T03:10:02;-5.90;99.90
9537;DHT22;4807;48.024;11.726;2023-01-30T03:13:28;-5.80;99.90
9537;DHT22;4807;48.024;11.726;2023-01-30T03:16:48;-5.80;99.90
9537;DHT22;4807;48.024;11.726;2023-01-30T03:20:02;-5.70;99.90
9537;DHT22;4807;48.024;11.726;2023-01-30T03:23:12;-5.70;99.90
9537;DHT22;4807;48.024;11.726;2023-01-30T03:26:23;-5.90;99.90
9537;DHT22;4807;48.024;11.726;2023-01-30T03:29:37;-6.10;99.90
9537;DHT22;4807;48.024;11.726;2023-01-30T03:32:45;-6.30;99.90
9537;DHT22;4807;48.024;11.726;2023-01-30T03:35:54;-6.30;99.90
9537;DHT22;4807;48.024;11.726;2023-01-30T03:39:04;-6.20;99.90
9537;DHT22;4807;48.024;11.726;2023-01-30T03:42:12;-6.20;99.90
9537;DHT22;4807;48.024;11.726;2023-01-30T03:45:21;-6.00;99.90
9537;DHT22;4807;48.024;11.726;2023-01-30T03:48:30;-5.90;99.90
9537;DHT22;4807;48.024;11.726;2023-01-30T03:51:38;-5.80;99.90
9537;DHT22;4807;48.024;11.726;2023-01-30T03:54:48;-5.60;99.90
9537;DHT22;4807;48.024;11.726;2023-01-30T03:57:56;-5.50;99.90
9537;DHT22;4807;48.024;11.726;2023-01-30T04:01:10;-5.30;99.90
9537;DHT22;4807;48.024;11.726;2023-01-30T04:04:20;-5.20;99.90
9537;DHT22;4807;48.024;11.726;2023-01-30T04:07:29;-5.00;99.90
9537;DHT22;4807;48.024;11.726;2023-01-30T04:10:39;-4.70;99.90
9537;DHT22;4807;48.024;11.726;2023-01-30T04:13:47;-4.50;99.90
9537;DHT22;4807;48.024;11.726;2023-01-30T04:16:56;-4.40;99.90
9537;DHT22;4807;48.024;11.726;2023-01-30T04:20:18;-4.30;99.90
9537;DHT22;4807;48.024;11.726;2023-01-30T04:23:31;-4.10;99.90
9537;DHT22;4807;48.024;11.726;2023-01-30T04:26:43;-4.00;99.90
9537;DHT22;4807;48.024;11.726;2023-01-30T04:29:53;-3.90;99.90
9537;DHT22;4807;48.024;11.726;2023-01-30T04:33:01;-3.80;99.90
9537;DHT22;4807;48.024;11.726;2023-01-30T04:36:10;-3.80;99.90
9537;DHT22;4807;48.024;11.726;2023-01-30T04:39:20;-3.90;99.90
9537;DHT22;4807;48.024;11.726;2023-01-30T04:42:30;-3.90;99.90
9537;DHT22;4807;48.024;11.726;2023-01-30T04:46:01;-3.90;99.90
9537;DHT22;4807;48.024;11.726;2023-01-30T04:49:09;-3.80;99.90
9537;DHT22;4807;48.024;11.726;2023-01-30T04:52:18;-3.70;99.90
9537;DHT22;4807;48.024;11.726;2023-01-30T04:55:27;-3.60;99.90
9537;DHT22;4807;48.024;11.726;2023-01-30T04:58:37;-3.40;99.90
9537;DHT22;4807;48.024;11.726;2023-01-30T05:01:46;-3.40;99.90
9537;DHT22;4807;48.024;11.726;2023-01-30T05:04:54;-3.30;99.90
9537;DHT22;4807;48.024;11.726;2023-01-30T05:08:03;-3.30;99.90
9537;DHT22;4807;48.024;11.726;2023-01-30T05:11:12;-3.40;99.90
9537;DHT22;4807;48.024;11.726;2023-01-30T05:14:21;-3.40;99.90
9537;DHT22;4807;48.024;11.726;2023-01-30T05:17:30;-3.30;99.90
9537;DHT22;4807;48.024;11.726;2023-01-30T05:20:39;-3.40;99.90
9537;DHT22;4807;48.024;11.726;2023-01-30T05:23:47;-3.40;99.90
9537;DHT22;4807;48.024;11.726;2023-01-30T05:26:56;-3.30;99.90
9537;DHT22;4807;48.024;11.726;2023-01-30T05:30:07;-3.50;99.90
9537;DHT22;4807;48.024;11.726;2023-01-30T05:33:16;-3.60;99.90
9537;DHT22;4807;48.024;11.726;2023-01-30T05:36:24;-3.50;99.90
9537;DHT22;4807;48.024;11.726;2023-01-30T05:39:32;-3.50;99.90
9537;DHT22;4807;48.024;11.726;2023-01-30T05:42:41;-3.50;99.90
9537;DHT22;4807;48.024;11.726;2023-01-30T05:45:52;-3.50;99.90
9537;DHT22;4807;48.024;11.726;2023-01-30T05:49:01;-3.60;99.90
9537;DHT22;4807;48.024;11.726;2023-01-30T05:52:10;-3.60;99.90
9537;DHT22;4807;48.024;11.726;2023-01-30T05:55:18;-3.50;99.90
9537;DHT22;4807;48.024;11.726;2023-01-30T05:58:27;-3.50;99.90
9537;DHT22;4807;48.024;11.726;2023-01-30T06:01:37;-3.50;99.90
9537;DHT22;4807;48.024;11.726;2023-01-30T06:04:45;-3.70;99.90
9537;DHT22;4807;48.024;11.726;2023-01-30T06:07:53;-3.80;99.90
9537;DHT22;4807;48.024;11.726;2023-01-30T06:11:03;-3.90;99.90
9537;DHT22;4807;48.024;11.726;2023-01-30T06:14:13;-3.80;99.90
9537;DHT22;4807;48.024;11.726;2023-01-30T06:17:22;-3.80;99.90
9537;DHT22;4807;48.024;11.726;2023-01-30T06:20:31;-3.80;99.90
9537;DHT22;4807;48.024;11.726;2023-01-30T06:23:39;-3.80;99.90
9537;DHT22;4807;48.024;11.726;2023-01-30T06:26:48;-3.80;99.90
9537;DHT22;4807;48.024;11.726;2023-01-30T06:29:56;-3.70;99.90
9537;DHT22;4807;48.024;11.726;2023-01-30T06:33:06;-3.60;99.90
9537;DHT22;4807;48.024;11.726;2023-01-30T06:36:15;-3.50;99.90
9537;DHT22;4807;48.024;11.726;2023-01-30T06:39:23;-3.60;99.90
9537;DHT22;4807;48.024;11.726;2023-01-30T06:42:31;-3.40;99.90
9537;DHT22;4807;48.024;11.726;2023-01-30T06:45:40;-3.40;99.90
9537;DHT22;4807;48.024;11.726;2023-01-30T06:48:50;-3.40;99.90
9537;DHT22;4807;48.024;11.726;2023-01-30T06:51:58;-3.50;99.90
9537;DHT22;4807;48.024;11.726;2023-01-30T06:55:07;-3.50;99.90
9537;DHT22;4807;48.024;11.726;2023-01-30T06:58:16;-3.50;99.90
9537;DHT22;4807;48.024;11.726;2023-01-30T07:01:24;-3.50;99.90
9537;DHT22;4807;48.024;11.726;2023-01-30T07:04:36;-3.60;99.90
9537;DHT22;4807;48.024;11.726;2023-01-30T07:07:44;-3.50;99.90
9537;DHT22;4807;48.024;11.726;2023-01-30T07:10:52;-3.40;99.90
9537;DHT22;4807;48.024;11.726;2023-01-30T07:14:01;-3.20;99.90
9537;DHT22;4807;48.024;11.726;2023-01-30T07:17:12;-3.10;99.90
9537;DHT22;4807;48.024;11.726;2023-01-30T07:20:22;-3.00;99.90
9537;DHT22;4807;48.024;11.726;2023-01-30T07:23:30;-3.00;99.90
9537;DHT22;4807;48.024;11.726;2023-01-30T07:26:39;-2.90;99.90
9537;DHT22;4807;48.024;11.726;2023-01-30T07:29:47;-2.90;99.90
9537;DHT22;4807;48.024;11.726;2023-01-30T07:32:58;-2.80;99.90
9537;DHT22;4807;48.024;11.726;2023-01-30T07:36:09;-2.80;99.90
9537;DHT22;4807;48.024;11.726;2023-01-30T07:39:17;-2.80;99.90
9537;DHT22;4807;48.024;11.726;2023-01-30T07:42:26;-2.70;99.90
9537;DHT22;4807;48.024;11.726;2023-01-30T07:45:36;-2.70;99.90
9537;DHT22;4807;48.024;11.726;2023-01-30T07:48:46;-2.60;99.90
9537;DHT22;4807;48.024;11.726;2023-01-30T07:51:56;-2.50;99.90
9537;DHT22;4807;48.024;11.726;2023-01-30T07:55:05;-2.40;99.90
9537;DHT22;4807;48.024;11.726;2023-01-30T07:58:14;-2.30;99.90
9537;DHT22;4807;48.024;11.726;2023-01-30T08:01:24;-2.20;99.90
9537;DHT22;4807;48.024;11.726;2023-01-30T08:04:32;-1.90;99.90
9537;DHT22;4807;48.024;11.726;2023-01-30T08:07:42;-1.80;99.90
9537;DHT22;4807;48.024;11.726;2023-01-30T08:10:51;-1.70;99.90
9537;DHT22;4807;48.024;11.726;2023-01-30T08:14:00;-1.60;99.90
9537;DHT22;4807;48.024;11.726;2023-01-30T08:17:09;-1.50;99.90
9537;DHT22;4807;48.024;11.726;2023-01-30T08:20:17;-1.50;99.90
9537;DHT22;4807;48.024;11.726;2023-01-30T08:23:29;-1.40;99.90
9537;DHT22;4807;48.024;11.726;2023-01-30T08:26:38;-1.50;99.90
9537;DHT22;4807;48.024;11.726;2023-01-30T08:29:46;-1.50;99.90
9537;DHT22;4807;48.024;11.726;2023-01-30T08:32:55;-1.60;99.90
9537;DHT22;4807;48.024;11.726;2023-01-30T08:36:05;-1.70;99.90
9537;DHT22;4807;48.024;11.726;2023-01-30T08:39:18;-1.70;99.90
9537;DHT22;4807;48.024;11.726;2023-01-30T08:42:26;-1.70;99.90
9537;DHT22;4807;48.024;11.726;2023-01-30T08:45:34;-1.50;99.90
9537;DHT22;4807;48.024;11.726;2023-01-30T08:48:43;-1.00;99.90
9537;DHT22;4807;48.024;11.726;2023-01-30T08:51:56;-1.00;99.90
9537;DHT22;4807;48.024;11.726;2023-01-30T08:55:06;-0.90;99.90
9537;DHT22;4807;48.024;11.726;2023-01-30T08:58:16;-0.90;99.90
9537;DHT22;4807;48.024;11.726;2023-01-30T09:01:25;-1.00;99.90
9537;DHT22;4807;48.024;11.726;2023-01-30T09:04:33;-1.20;99.90
9537;DHT22;4807;48.024;11.726;2023-01-30T09:07:42;-1.30;99.90
9537;DHT22;4807;48.024;11.726;2023-01-30T09:10:56;-1.00;99.90
9537;DHT22;4807;48.024;11.726;2023-01-30T09:14:05;-0.50;99.90
9537;DHT22;4807;48.024;11.726;2023-01-30T09:17:14;-0.20;99.90
9537;DHT22;4807;48.024;11.726;2023-01-30T09:20:22;-0.10;99.90
9537;DHT22;4807;48.024;11.726;2023-01-30T09:23:31;-0.30;99.90
9537;DHT22;4807;48.024;11.726;2023-01-30T09:26:41;-0.30;99.90
9537;DHT22;4807;48.024;11.726;2023-01-30T09:29:50;-0.20;99.90
9537;DHT22;4807;48.024;11.726;2023-01-30T09:32:59;-0.30;99.90
9537;DHT22;4807;48.024;11.726;2023-01-30T09:36:08;-0.40;99.90
9537;DHT22;4807;48.024;11.726;2023-01-30T09:39:17;-0.40;99.90
9537;DHT22;4807;48.024;11.726;2023-01-30T09:42:48;-0.20;99.90
9537;DHT22;4807;48.024;11.726;2023-01-30T09:46:17;-0.10;99.90
9537;DHT22;4807;48.024;11.726;2023-01-30T09:49:42;0.10;99.90
9537;DHT22;4807;48.024;11.726;2023-01-30T09:53:04;0.20;99.90
9537;DHT22;4807;48.024;11.726;2023-01-30T09:56:16;0.30;99.90
9537;DHT22;4807;48.024;11.726;2023-01-30T09:59:33;0.50;99.90
9537;DHT22;4807;48.024;11.726;2023-01-30T10:02:56;0.60;99.90
9537;DHT22;4807;48.024;11.726;2023-01-30T10:06:13;0.60;99.90
9537;DHT22;4807;48.024;11.726;2023-01-30T10:09:32;0.80;99.90
9537;DHT22;4807;48.024;11.726;2023-01-30T10:12:57;1.00;99.40
9537;DHT22;4807;48.024;11.726;2023-01-30T10:16:18;1.20;99.30
9537;DHT22;4807;48.024;11.726;2023-01-30T10:19:49;1.40;98.30
9537;DHT22;4807;48.024;11.726;2023-01-30T10:26:54;1.70;99.00
9537;DHT22;4807;48.024;11.726;2023-01-30T10:30:08;2.30;98.10
9537;DHT22;4807;48.024;11.726;2023-01-30T10:33:28;2.50;97.50
9537;DHT22;4807;48.024;11.726;2023-01-30T10:36:46;2.40;97.60
9537;DHT22;4807;48.024;11.726;2023-01-30T10:40:03;2.20;97.90
9537;DHT22;4807;48.024;11.726;2023-01-30T10:43:22;2.10;98.80
9537;DHT22;4807;48.024;11.726;2023-01-30T10:46:49;2.20;98.80
9537;DHT22;4807;48.024;11.726;2023-01-30T10:50:18;2.20;98.30
9537;DHT22;4807;48.024;11.726;2023-01-30T10:53:36;2.10;98.80
9537;DHT22;4807;48.024;11.726;2023-01-30T10:56:57;2.10;99.30
9537;DHT22;4807;48.024;11.726;2023-01-30T11:00:21;2.50;99.60
9537;DHT22;4807;48.024;11.726;2023-01-30T11:03:38;2.80;99.00
9537;DHT22;4807;48.024;11.726;2023-01-30T11:06:54;2.90;99.00
9537;DHT22;4807;48.024;11.726;2023-01-30T11:10:14;3.20;99.10
9537;DHT22;4807;48.024;11.726;2023-01-30T11:13:28;3.70;98.10
9537;DHT22;4807;48.024;11.726;2023-01-30T11:16:43;4.00;97.90
9537;DHT22;4807;48.024;11.726;2023-01-30T11:19:55;4.00;97.40
9537;DHT22;4807;48.024;11.726;2023-01-30T11:23:07;4.10;97.60
9537;DHT22;4807;48.024;11.726;2023-01-30T11:26:34;4.40;97.90
9537;DHT22;4807;48.024;11.726;2023-01-30T11:30:03;4.70;97.30
9537;DHT22;4807;48.024;11.726;2023-01-30T11:33:30;4.50;97.20
9537;DHT22;4807;48.024;11.726;2023-01-30T11:36:40;4.60;97.60
9537;DHT22;4807;48.024;11.726;2023-01-30T11:39:51;4.70;97.10
9537;DHT22;4807;48.024;11.726;2023-01-30T11:43:02;4.80;97.20
9537;DHT22;4807;48.024;11.726;2023-01-30T11:46:16;4.90;96.90
9537;DHT22;4807;48.024;11.726;2023-01-30T11:49:32;4.50;97.50
9537;DHT22;4807;48.024;11.726;2023-01-30T11:53:18;4.30;98.00
9537;DHT22;4807;48.024;11.726;2023-01-30T11:56:37;4.10;98.40
9537;DHT22;4807;48.024;11.726;2023-01-30T11:59:53;3.80;98.50
9537;DHT22;4807;48.024;11.726;2023-01-30T12:03:05;3.60;98.60
9537;DHT22;4807;48.024;11.726;2023-01-30T12:06:29;3.60;99.00
9537;DHT22;4807;48.024;11.726;2023-01-30T12:09:39;3.80;99.20
9537;DHT22;4807;48.024;11.726;2023-01-30T12:12:50;4.20;98.50
9537;DHT22;4807;48.024;11.726;2023-01-30T12:16:12;4.30;98.20
9537;DHT22;4807;48.024;11.726;2023-01-30T12:19:35;4.10;98.10
9537;DHT22;4807;48.024;11.726;2023-01-30T12:23:02;3.90;98.50
9537;DHT22;4807;48.024;11.726;2023-01-30T12:26:19;3.60;98.80
9537;DHT22;4807;48.024;11.726;2023-01-30T12:29:37;3.60;99.20
9537;DHT22;4807;48.024;11.726;2023-01-30T12:32:58;3.50;99.10
9537;DHT22;4807;48.024;11.726;2023-01-30T12:36:23;3.50;99.30
9537;DHT22;4807;48.024;11.726;2023-01-30T12:39:50;3.40;99.20
9537;DHT22;4807;48.024;11.726;2023-01-30T12:46:58;3.10;99.70
9537;DHT22;4807;48.024;11.726;2023-01-30T12:50:24;3.00;99.90
9537;DHT22;4807;48.024;11.726;2023-01-30T12:53:52;3.00;99.90
9537;DHT22;4807;48.024;11.726;2023-01-30T12:57:14;3.00;99.90
9537;DHT22;4807;48.024;11.726;2023-01-30T13:00:40;3.00;99.90
9537;DHT22;4807;48.024;11.726;2023-01-30T13:04:06;2.90;99.90
9537;DHT22;4807;48.024;11.726;2023-01-30T13:07:26;2.90;99.90
9537;DHT22;4807;48.024;11.726;2023-01-30T13:10:44;2.80;99.90
9537;DHT22;4807;48.024;11.726;2023-01-30T13:14:05;2.80;99.90
9537;DHT22;4807;48.024;11.726;2023-01-30T13:17:43;2.80;99.90
9537;DHT22;4807;48.024;11.726;2023-01-30T13:21:11;2.80;99.90
9537;DHT22;4807;48.024;11.726;2023-01-30T13:24:38;2.90;99.90
9537;DHT22;4807;48.024;11.726;2023-01-30T13:27:57;2.90;99.90
9537;DHT22;4807;48.024;11.726;2023-01-30T13:31:13;3.00;99.90
9537;DHT22;4807;48.024;11.726;2023-01-30T13:34:29;3.00;99.90
9537;DHT22;4807;48.024;11.726;2023-01-30T13:37:42;3.20;99.90
9537;DHT22;4807;48.024;11.726;2023-01-30T13:40:56;3.20;99.90
9537;DHT22;4807;48.024;11.726;2023-01-30T13:44:16;3.20;99.90
9537;DHT22;4807;48.024;11.726;2023-01-30T13:47:39;3.20;99.90
9537;DHT22;4807;48.024;11.726;2023-01-30T13:51:11;3.10;99.90
9537;DHT22;4807;48.024;11.726;2023-01-30T13:54:51;3.10;99.90
9537;DHT22;4807;48.024;11.726;2023-01-30T13:58:14;3.10;99.90
9537;DHT22;4807;48.024;11.726;2023-01-30T14:02:16;3.10;99.90
9537;DHT22;4807;48.024;11.726;2023-01-30T14:09:19;3.00;99.90
9537;DHT22;4807;48.024;11.726;2023-01-30T14:12:36;3.00;99.90
9537;DHT22;4807;48.024;11.726;2023-01-30T14:15:53;3.00;99.90
9537;DHT22;4807;48.024;11.726;2023-01-30T14:22:53;2.90;99.90
9537;DHT22;4807;48.024;11.726;2023-01-30T14:26:03;2.90;99.90
9537;DHT22;4807;48.024;11.726;2023-01-30T14:29:50;2.90;99.90
9537;DHT22;4807;48.024;11.726;2023-01-30T14:33:00;3.00;99.90
9537;DHT22;4807;48.024;11.726;2023-01-30T14:36:34;3.00;99.90
9537;DHT22;4807;48.024;11.726;2023-01-30T14:39:52;3.00;99.90
9537;DHT22;4807;48.024;11.726;2023-01-30T14:47:00;3.00;99.90
9537;DHT22;4807;48.024;11.726;2023-01-30T14:50:29;3.00;99.90
9537;DHT22;4807;48.024;11.726;2023-01-30T14:53:50;2.90;99.90
9537;DHT22;4807;48.024;11.726;2023-01-30T14:57:02;2.90;99.90
9537;DHT22;4807;48.024;11.726;2023-01-30T15:00:17;2.80;99.90
9537;DHT22;4807;48.024;11.726;2023-01-30T15:03:29;2.80;99.90
9537;DHT22;4807;48.024;11.726;2023-01-30T15:06:46;2.70;99.90
9537;DHT22;4807;48.024;11.726;2023-01-30T15:09:57;2.70;99.90
9537;DHT22;4807;48.024;11.726;2023-01-30T15:17:14;2.70;99.90
9537;DHT22;4807;48.024;11.726;2023-01-30T15:20:41;2.70;99.90
9537;DHT22;4807;48.024;11.726;2023-01-30T15:24:11;2.70;99.90
9537;DHT22;4807;48.024;11.726;2023-01-30T15:27:39;2.70;99.90
9537;DHT22;4807;48.024;11.726;2023-01-30T15:31:09;2.60;99.90
9537;DHT22;4807;48.024;11.726;2023-01-30T15:34:20;2.60;99.90
9537;DHT22;4807;48.024;11.726;2023-01-30T15:37:35;2.50;99.90
9537;DHT22;4807;48.024;11.726;2023-01-30T15:40:45;2.50;99.90
9537;DHT22;4807;48.024;11.726;2023-01-30T15:44:30;2.50;99.90
9537;DHT22;4807;48.024;11.726;2023-01-30T15:48:11;2.50;99.90
9537;DHT22;4807;48.024;11.726;2023-01-30T15:51:31;2.50;99.90
9537;DHT22;4807;48.024;11.726;2023-01-30T15:54:46;2.40;99.90
9537;DHT22;4807;48.024;11.726;2023-01-30T15:58:00;2.50;99.90
9537;DHT22;4807;48.024;11.726;2023-01-30T16:01:17;2.40;99.90
9537;DHT22;4807;48.024;11.726;2023-01-30T16:04:28;2.40;99.90
9537;DHT22;4807;48.024;11.726;2023-01-30T16:07:37;2.40;99.90
9537;DHT22;4807;48.024;11.726;2023-01-30T16:10:48;2.30;99.90
9537;DHT22;4807;48.024;11.726;2023-01-30T16:13:57;2.30;99.90
9537;DHT22;4807;48.024;11.726;2023-01-30T16:17:06;2.30;99.90
9537;DHT22;4807;48.024;11.726;2023-01-30T16:20:18;2.30;99.90
9537;DHT22;4807;48.024;11.726;2023-01-30T16:23:28;2.30;99.90
9537;DHT22;4807;48.024;11.726;2023-01-30T16:26:43;2.20;99.90
9537;DHT22;4807;48.024;11.726;2023-01-30T16:29:56;2.20;99.90
9537;DHT22;4807;48.024;11.726;2023-01-30T16:33:06;2.30;99.90
9537;DHT22;4807;48.024;11.726;2023-01-30T16:36:33;2.20;99.90
9537;DHT22;4807;48.024;11.726;2023-01-30T16:40:00;2.10;99.90
9537;DHT22;4807;48.024;11.726;2023-01-30T16:43:23;2.00;99.90
9537;DHT22;4807;48.024;11.726;2023-01-30T16:46:48;1.90;99.90
9537;DHT22;4807;48.024;11.726;2023-01-30T16:49:58;1.80;99.90
9537;DHT22;4807;48.024;11.726;2023-01-30T16:53:12;1.80;99.90
9537;DHT22;4807;48.024;11.726;2023-01-30T16:56:25;1.80;99.90
9537;DHT22;4807;48.024;11.726;2023-01-30T16:59:36;1.70;99.90
9537;DHT22;4807;48.024;11.726;2023-01-30T17:02:49;1.70;99.90
9537;DHT22;4807;48.024;11.726;2023-01-30T17:06:02;1.60;99.90
9537;DHT22;4807;48.024;11.726;2023-01-30T17:09:34;1.60;99.90
9537;DHT22;4807;48.024;11.726;2023-01-30T17:12:47;1.60;99.90
9537;DHT22;4807;48.024;11.726;2023-01-30T17:16:26;1.50;99.90
9537;DHT22;4807;48.024;11.726;2023-01-30T17:19:39;1.50;99.90
9537;DHT22;4807;48.024;11.726;2023-01-30T17:22:49;1.40;99.90
9537;DHT22;4807;48.024;11.726;2023-01-30T17:25:59;1.50;99.90
9537;DHT22;4807;48.024;11.726;2023-01-30T17:29:10;1.40;99.90
9537;DHT22;4807;48.024;11.726;2023-01-30T17:32:38;1.50;99.90
9537;DHT22;4807;48.024;11.726;2023-01-30T17:35:47;1.60;99.90
9537;DHT22;4807;48.024;11.726;2023-01-30T17:38:57;1.70;99.90
9537;DHT22;4807;48.024;11.726;2023-01-30T17:42:10;1.70;99.90
9537;DHT22;4807;48.024;11.726;2023-01-30T17:45:28;1.80;99.90
9537;DHT22;4807;48.024;11.726;2023-01-30T17:48:38;1.80;99.90
9537;DHT22;4807;48.024;11.726;2023-01-30T17:51:48;1.90;99.90
9537;DHT22;4807;48.024;11.726;2023-01-30T17:54:59;1.80;99.90
9537;DHT22;4807;48.024;11.726;2023-01-30T17:58:17;1.80;99.90
9537;DHT22;4807;48.024;11.726;2023-01-30T18:01:26;1.80;99.90
9537;DHT22;4807;48.024;11.726;2023-01-30T18:04:36;1.80;99.90
9537;DHT22;4807;48.024;11.726;2023-01-30T18:07:45;1.80;99.90
9537;DHT22;4807;48.024;11.726;2023-01-30T18:10:55;1.70;99.90
9537;DHT22;4807;48.024;11.726;2023-01-30T18:14:03;1.70;99.90
9537;DHT22;4807;48.024;11.726;2023-01-30T18:17:13;1.60;99.90
9537;DHT22;4807;48.024;11.726;2023-01-30T18:20:22;1.60;99.90
9537;DHT22;4807;48.024;11.726;2023-01-30T18:23:31;1.60;99.90
9537;DHT22;4807;48.024;11.726;2023-01-30T18:26:40;1.70;99.90
9537;DHT22;4807;48.024;11.726;2023-01-30T18:29:50;1.70;99.90
9537;DHT22;4807;48.024;11.726;2023-01-30T18:32:58;1.70;99.90
9537;DHT22;4807;48.024;11.726;2023-01-30T18:36:09;1.60;99.90
9537;DHT22;4807;48.024;11.726;2023-01-30T18:39:19;1.60;99.90
9537;DHT22;4807;48.024;11.726;2023-01-30T18:42:27;1.60;99.90
9537;DHT22;4807;48.024;11.726;2023-01-30T18:45:37;1.50;99.90
9537;DHT22;4807;48.024;11.726;2023-01-30T18:48:46;1.50;99.90
9537;DHT22;4807;48.024;11.726;2023-01-30T18:51:57;1.50;99.90
9537;DHT22;4807;48.024;11.726;2023-01-30T18:55:05;1.50;99.90
9537;DHT22;4807;48.024;11.726;2023-01-30T18:58:15;1.60;99.90
9537;DHT22;4807;48.024;11.726;2023-01-30T19:01:25;1.60;99.90
9537;DHT22;4807;48.024;11.726;2023-01-30T19:04:34;1.60;99.90
9537;DHT22;4807;48.024;11.726;2023-01-30T19:07:44;1.60;99.90
9537;DHT22;4807;48.024;11.726;2023-01-30T19:10:53;1.60;99.90
9537;DHT22;4807;48.024;11.726;2023-01-30T19:14:22;1.60;99.90
9537;DHT22;4807;48.024;11.726;2023-01-30T19:17:29;1.60;99.90
9537;DHT22;4807;48.024;11.726;2023-01-30T19:20:37;1.70;99.90
9537;DHT22;4807;48.024;11.726;2023-01-30T19:23:48;1.70;99.90
9537;DHT22;4807;48.024;11.726;2023-01-30T19:26:57;1.70;99.90
9537;DHT22;4807;48.024;11.726;2023-01-30T19:30:07;1.70;99.90
9537;DHT22;4807;48.024;11.726;2023-01-30T19:33:16;1.70;99.90
9537;DHT22;4807;48.024;11.726;2023-01-30T19:36:28;1.80;99.90
9537;DHT22;4807;48.024;11.726;2023-01-30T19:39:40;1.80;99.90
9537;DHT22;4807;48.024;11.726;2023-01-30T19:42:49;1.80;99.90
9537;DHT22;4807;48.024;11.726;2023-01-30T19:46:02;1.80;99.90
9537;DHT22;4807;48.024;11.726;2023-01-30T19:49:12;1.80;99.90
9537;DHT22;4807;48.024;11.726;2023-01-30T19:52:20;1.80;99.90
9537;DHT22;4807;48.024;11.726;2023-01-30T19:55:33;1.80;99.90
9537;DHT22;4807;48.024;11.726;2023-01-30T19:58:42;1.90;99.90
9537;DHT22;4807;48.024;11.726;2023-01-30T20:01:50;1.90;99.90
9537;DHT22;4807;48.024;11.726;2023-01-30T20:04:59;1.80;99.90
9537;DHT22;4807;48.024;11.726;2023-01-30T20:08:08;1.90;99.90
9537;DHT22;4807;48.024;11.726;2023-01-30T20:11:38;1.90;99.90
9537;DHT22;4807;48.024;11.726;2023-01-30T20:14:48;1.90;99.90
9537;DHT22;4807;48.024;11.726;2023-01-30T20:17:57;1.90;99.90
9537;DHT22;4807;48.024;11.726;2023-01-30T20:21:06;1.80;99.90
9537;DHT22;4807;48.024;11.726;2023-01-30T20:24:16;1.70;99.90
9537;DHT22;4807;48.024;11.726;2023-01-30T20:27:26;1.50;99.90
9537;DHT22;4807;48.024;11.726;2023-01-30T20:30:37;1.50;99.90
9537;DHT22;4807;48.024;11.726;2023-01-30T20:33:47;1.50;99.90
9537;DHT22;4807;48.024;11.726;2023-01-30T20:36:55;1.60;99.90
9537;DHT22;4807;48.024;11.726;2023-01-30T20:40:06;1.70;99.90
9537;DHT22;4807;48.024;11.726;2023-01-30T20:43:17;1.70;99.90
9537;DHT22;4807;48.024;11.726;2023-01-30T20:46:28;1.70;99.90
9537;DHT22;4807;48.024;11.726;2023-01-30T20:49:37;1.70;99.90
9537;DHT22;4807;48.024;11.726;2023-01-30T20:52:47;1.80;99.90
9537;DHT22;4807;48.024;11.726;2023-01-30T20:55:57;1.80;99.90
9537;DHT22;4807;48.024;11.726;2023-01-30T20:59:08;1.80;99.90
9537;DHT22;4807;48.024;11.726;2023-01-30T21:02:18;1.80;99.90
9537;DHT22;4807;48.024;11.726;2023-01-30T21:05:26;1.80;99.90
9537;DHT22;4807;48.024;11.726;2023-01-30T21:08:38;1.80;99.90
9537;DHT22;4807;48.024;11.726;2023-01-30T21:11:48;1.80;99.90
9537;DHT22;4807;48.024;11.726;2023-01-30T21:14:59;1.80;99.90
9537;DHT22;4807;48.024;11.726;2023-01-30T21:18:07;1.80;99.90
9537;DHT22;4807;48.024;11.726;2023-01-30T21:21:18;1.80;99.90
9537;DHT22;4807;48.024;11.726;2023-01-30T21:24:28;1.80;99.90
9537;DHT22;4807;48.024;11.726;2023-01-30T21:27:36;1.80;99.90